Time;durP1;ratioP1;P1;durP2;ratioP2;P2;SDS_P1;SDS_P2;PMS_P1;PMS_P2;Temp;Humidity;BMP_temperature;BMP_pressure;BME280_temperature;BME280_humidity;BME280_pressure;Samples;Min_cycle;Max_cycle;Signal;HPM_P1;HPM_P2
2023/08/04 00:00:56;;;;;;;20.40;4.30;;;;;;;23.08;63.37;100571.19;107570;1251;98436;-69
2023/08/04 00:03:30;;;;;;;10.20;4.50;;;;;;;23.04;63.55;100574.55;107615;1254;111440;-68
2023/08/04 00:05:58;;;;;;;13.90;4.10;;;;;;;22.94;64.74;100572.48;107527;1254;109887;-68
2023/08/04 00:08:26;;;;;;;10.00;4.20;;;;;;;22.82;65.42;100573.96;107554;1254;107800;-68
2023/08/04 00:10:55;;;;;;;12.90;4.00;;;;;;;22.73;65.30;100573.20;107548;1251;97868;-67
2023/08/04 00:13:23;;;;;;;13.30;4.60;;;;;;;22.67;65.00;100572.27;107573;1251;98453;-69
2023/08/04 00:15:51;;;;;;;7.90;3.80;;;;;;;22.66;64.95;100571.17;107553;1251;112927;-66
2023/08/04 00:18:20;;;;;;;12.20;4.20;;;;;;;22.68;64.97;100574.95;107584;1251;109935;-68
2023/08/04 00:20:48;;;;;;;6.60;4.00;;;;;;;22.69;64.79;100575.11;107563;1254;108251;-68
2023/08/04 00:23:17;;;;;;;15.20;4.20;;;;;;;22.70;64.85;100580.30;107555;1250;97837;-67
2023/08/04 00:25:46;;;;;;;9.60;3.90;;;;;;;22.67;64.79;100580.35;107584;1254;97692;-68
2023/08/04 00:28:14;;;;;;;20.40;4.30;;;;;;;22.65;64.96;100577.50;107633;1254;111367;-69
2023/08/04 00:30:42;;;;;;;8.20;4.10;;;;;;;22.65;64.79;100579.02;107618;1255;109154;-67
2023/08/04 00:33:11;;;;;;;8.70;4.40;;;;;;;22.62;64.85;100577.95;107572;1253;107702;-68
2023/08/04 00:35:40;;;;;;;10.20;4.20;;;;;;;22.60;65.01;100580.82;107628;1251;97821;-67
2023/08/04 00:38:08;;;;;;;10.20;4.30;;;;;;;22.55;65.19;100577.49;107607;1254;98488;-68
2023/08/04 00:40:36;;;;;;;17.20;4.30;;;;;;;22.51;65.05;100584.31;107569;1253;111319;-68
2023/08/04 00:43:05;;;;;;;7.50;3.80;;;;;;;22.48;65.14;100583.05;107613;1255;110387;-67
2023/08/04 00:45:34;;;;;;;9.50;4.10;;;;;;;22.45;65.36;100581.64;107612;1251;107781;-68
2023/08/04 00:48:03;;;;;;;17.40;4.40;;;;;;;22.43;65.45;100589.23;107617;1251;97809;-66
2023/08/04 00:50:32;;;;;;;11.20;4.10;;;;;;;22.42;65.56;100590.84;107737;1255;97851;-68
2023/08/04 00:53:02;;;;;;;14.90;4.80;;;;;;;22.39;66.00;100594.34;107582;1253;110732;-65
2023/08/04 00:55:32;;;;;;;11.80;4.70;;;;;;;22.36;65.84;100587.85;107652;1251;109440;-69
2023/08/04 00:58:00;;;;;;;8.20;4.90;;;;;;;22.34;65.96;100588.88;107631;1256;107697;-69
2023/08/04 01:00:29;;;;;;;16.60;4.30;;;;;;;22.32;65.88;100587.48;107589;1251;97834;-69
2023/08/04 01:02:57;;;;;;;7.70;4.10;;;;;;;22.31;66.16;100587.97;107573;1251;98389;-67
2023/08/04 01:05:34;;;;;;;11.90;4.30;;;;;;;22.29;66.70;100585.95;107663;1251;112461;-69
2023/08/04 01:08:34;;;;;;;17.90;4.70;;;;;;;22.26;66.65;100588.71;107596;1251;109332;-70
2023/08/04 01:11:12;;;;;;;13.50;5.00;;;;;;;22.25;66.52;100595.63;107563;1254;108570;-66
2023/08/04 01:13:43;;;;;;;10.50;4.50;;;;;;;22.24;66.59;100594.95;107626;1251;97746;-69
2023/08/04 01:16:12;;;;;;;11.60;4.50;;;;;;;22.23;66.63;100597.37;107675;1251;98337;-66
2023/08/04 01:18:40;;;;;;;13.50;4.60;;;;;;;22.22;66.68;100601.20;107555;1251;112148;-69
2023/08/04 01:21:08;;;;;;;8.80;4.50;;;;;;;22.20;66.97;100602.13;107664;1251;108652;-68
2023/08/04 01:23:37;;;;;;;11.00;4.50;;;;;;;22.20;66.94;100602.18;107561;1251;108083;-68
2023/08/04 01:26:09;;;;;;;10.20;4.00;;;;;;;22.18;67.18;100600.58;107537;1251;97857;-67
2023/08/04 01:28:38;;;;;;;9.50;5.10;;;;;;;22.14;67.35;100600.33;107659;1251;97964;-69
2023/08/04 01:31:08;;;;;;;15.20;4.90;;;;;;;22.10;67.33;100601.98;107561;1254;113317;-66
2023/08/04 01:33:40;;;;;;;10.00;4.50;;;;;;;22.04;67.20;100599.21;107564;1254;108890;-67
2023/08/04 01:36:08;;;;;;;14.80;5.00;;;;;;;21.98;67.62;100597.33;107626;1251;107736;-68
2023/08/04 01:38:37;;;;;;;15.50;4.40;;;;;;;21.94;67.54;100598.70;107556;1251;97916;-67
2023/08/04 01:41:05;;;;;;;13.60;4.90;;;;;;;21.90;67.73;100601.03;107607;1255;97970;-67
2023/08/04 01:43:34;;;;;;;13.00;5.00;;;;;;;21.88;67.68;100599.98;107633;1251;112355;-67
2023/08/04 01:46:02;;;;;;;13.70;4.40;;;;;;;21.87;67.72;100600.65;107558;1251;109705;-65
2023/08/04 01:48:30;;;;;;;18.50;4.40;;;;;;;21.87;67.98;100601.63;107629;1251;108231;-66
2023/08/04 01:50:59;;;;;;;9.40;4.60;;;;;;;21.86;68.12;100604.50;107600;1251;97793;-67
2023/08/04 01:53:31;;;;;;;11.30;5.50;;;;;;;21.80;68.42;100604.94;107612;1251;97889;-69
2023/08/04 01:56:03;;;;;;;17.40;5.10;;;;;;;21.76;68.54;100604.70;107578;1251;111227;-67
2023/08/04 01:58:31;;;;;;;12.80;4.30;;;;;;;21.70;68.61;100607.02;107569;1251;108739;-65
2023/08/04 02:00:59;;;;;;;7.90;4.30;;;;;;;21.68;68.54;100607.25;107589;1251;107499;-67
2023/08/04 02:03:27;;;;;;;10.30;4.40;;;;;;;21.65;68.60;100610.48;107572;1251;97681;-69
2023/08/04 02:05:56;;;;;;;11.70;4.40;;;;;;;21.60;69.18;100608.05;107628;1251;97739;-67
2023/08/04 02:08:24;;;;;;;15.70;4.90;;;;;;;21.55;69.48;100607.79;107613;1256;111611;-69
2023/08/04 02:10:52;;;;;;;10.70;4.60;;;;;;;21.51;69.62;100609.56;107608;1251;109917;-66
2023/08/04 02:13:22;;;;;;;8.60;4.50;;;;;;;21.47;69.65;100618.18;107620;1251;106368;-67
2023/08/04 02:15:51;;;;;;;18.20;6.10;;;;;;;21.46;69.79;100614.41;107623;1251;97892;-66
2023/08/04 02:18:19;;;;;;;8.90;5.00;;;;;;;21.46;69.87;100618.19;107627;1250;97900;-66
2023/08/04 02:20:48;;;;;;;13.20;4.20;;;;;;;21.46;69.79;100617.02;107562;1251;110900;-67
2023/08/04 02:23:16;;;;;;;14.40;4.60;;;;;;;21.44;69.77;100618.83;107610;1251;111002;-69
2023/08/04 02:25:44;;;;;;;12.30;5.10;;;;;;;21.44;69.85;100620.84;107547;1251;108469;-68
2023/08/04 02:28:14;;;;;;;12.40;5.10;;;;;;;21.45;69.77;100622.81;107648;1251;97816;-68
2023/08/04 02:30:43;;;;;;;14.60;4.80;;;;;;;21.43;70.04;100619.92;107624;1251;99499;-67
2023/08/04 02:33:11;;;;;;;13.30;4.90;;;;;;;21.42;69.91;100618.87;107632;1250;111554;-69
2023/08/04 02:35:40;;;;;;;14.60;4.90;;;;;;;21.43;70.18;100620.08;107616;1251;109725;-69
2023/08/04 02:38:08;;;;;;;8.80;4.40;;;;;;;21.45;70.03;100623.08;107646;1251;107238;-68
2023/08/04 02:40:39;;;;;;;11.90;4.20;;;;;;;21.45;69.93;100621.30;107597;1254;97826;-70
2023/08/04 02:43:07;;;;;;;8.50;4.00;;;;;;;21.46;69.80;100623.76;107603;1254;97737;-68
2023/08/04 02:45:37;;;;;;;11.40;4.40;;;;;;;21.44;70.00;100628.55;107557;1254;111734;-67
2023/08/04 02:48:05;;;;;;;19.10;5.50;;;;;;;21.40;69.94;100634.91;107532;1256;111876;-67
2023/08/04 02:50:34;;;;;;;22.70;5.80;;;;;;;21.37;69.97;100634.62;107592;1251;108308;-69
2023/08/04 02:53:03;;;;;;;10.70;5.10;;;;;;;21.33;69.95;100629.60;107586;1251;98488;-65
2023/08/04 02:55:31;;;;;;;17.70;4.70;;;;;;;21.31;70.07;100630.83;107541;1251;97703;-69
2023/08/04 02:58:00;;;;;;;11.70;4.50;;;;;;;21.29;70.11;100630.04;107625;1251;111904;-67
2023/08/04 03:00:28;;;;;;;22.40;7.00;;;;;;;21.25;70.16;100637.30;107571;1256;109333;-68
2023/08/04 03:02:56;;;;;;;17.70;5.30;;;;;;;21.22;70.29;100640.63;107610;1254;108539;-68
2023/08/04 03:05:26;;;;;;;12.70;5.00;;;;;;;21.20;70.32;100637.48;107621;1251;97816;-68
2023/08/04 03:07:54;;;;;;;12.90;6.00;;;;;;;21.18;70.60;100635.30;107649;1251;97816;-66
2023/08/04 03:10:22;;;;;;;11.60;4.50;;;;;;;21.19;70.49;100637.23;107593;1251;112859;-68
2023/08/04 03:12:50;;;;;;;14.30;8.40;;;;;;;21.17;70.68;100635.80;107594;1251;109963;-67
2023/08/04 03:15:18;;;;;;;12.60;4.80;;;;;;;21.18;70.72;100636.85;107610;1251;108544;-67
2023/08/04 03:17:47;;;;;;;13.50;5.10;;;;;;;21.18;70.91;100641.32;107550;1251;97848;-68
2023/08/04 03:20:15;;;;;;;20.20;7.10;;;;;;;21.20;70.84;100644.51;107625;1251;97795;-65
2023/08/04 03:22:43;;;;;;;10.80;5.60;;;;;;;21.23;71.17;100647.93;107649;1251;112209;-69
2023/08/04 03:25:11;;;;;;;12.90;4.70;;;;;;;21.26;71.15;100650.11;107523;1254;110344;-69
2023/08/04 03:27:40;;;;;;;10.80;5.00;;;;;;;21.26;71.22;100651.54;107595;1255;107934;-67
2023/08/04 03:30:09;;;;;;;13.30;5.30;;;;;;;21.26;71.21;100649.89;107603;1254;97810;-66
2023/08/04 03:32:37;;;;;;;17.70;5.50;;;;;;;21.27;71.27;100648.52;107632;1255;97724;-66
2023/08/04 03:35:06;;;;;;;16.70;5.50;;;;;;;21.29;71.28;100652.69;107576;1251;111450;-67
2023/08/04 03:37:36;;;;;;;25.00;5.50;;;;;;;21.31;71.26;100658.45;107597;1251;109147;-69
2023/08/04 03:40:05;;;;;;;16.00;4.80;;;;;;;21.32;71.48;100658.57;107555;1251;108178;-69
2023/08/04 03:42:36;;;;;;;10.80;4.50;;;;;;;21.33;71.53;100657.95;107624;1251;97812;-67
2023/08/04 03:45:08;;;;;;;13.40;4.80;;;;;;;21.35;71.57;100654.61;107584;1251;97713;-67
2023/08/04 03:47:36;;;;;;;11.40;5.00;;;;;;;21.36;71.62;100651.70;107618;1250;112147;-68
2023/08/04 03:50:06;;;;;;;13.10;5.30;;;;;;;21.39;71.80;100652.85;107571;1251;109586;-68
2023/08/04 03:52:35;;;;;;;10.80;4.90;;;;;;;21.43;71.79;100654.41;107587;1251;108527;-67
2023/08/04 03:55:06;;;;;;;8.40;5.30;;;;;;;21.46;71.79;100657.96;107500;1254;97892;-67
2023/08/04 03:57:34;;;;;;;20.90;5.10;;;;;;;21.50;71.85;100659.66;107610;1255;97979;-69
2023/08/04 04:00:12;;;;;;;10.40;4.80;;;;;;;21.53;71.74;100662.14;107571;1251;110718;-71
2023/08/04 04:02:43;;;;;;;13.90;5.30;;;;;;;21.56;71.91;100656.24;107670;1255;109372;-71
2023/08/04 04:05:22;;;;;;;97.60;10.60;;;;;;;21.61;71.91;100656.48;107529;1254;107988;-69
2023/08/04 04:07:57;;;;;;;9.50;4.80;;;;;;;21.67;72.00;100657.52;107578;1254;97700;-69
2023/08/04 04:10:25;;;;;;;14.40;4.90;;;;;;;21.71;72.04;100656.79;107654;1254;97732;-70
2023/08/04 04:12:58;;;;;;;18.30;5.00;;;;;;;21.75;72.04;100659.56;107550;1251;111519;-70
2023/08/04 04:15:34;;;;;;;16.30;4.40;;;;;;;21.80;72.04;100663.58;107601;1251;109860;-66
2023/08/04 04:18:02;;;;;;;12.60;5.00;;;;;;;21.84;72.12;100660.48;107553;1251;108196;-67
2023/08/04 04:20:31;;;;;;;11.90;5.50;;;;;;;21.87;72.28;100661.37;107511;1254;97840;-69
2023/08/04 04:22:59;;;;;;;23.30;6.20;;;;;;;21.89;72.20;100661.61;107588;1254;97879;-67
2023/08/04 04:25:27;;;;;;;11.70;4.70;;;;;;;21.94;72.03;100657.34;107577;1254;112172;-67
2023/08/04 04:27:56;;;;;;;9.90;4.80;;;;;;;22.00;72.29;100660.16;107622;1254;109674;-65
2023/08/04 04:30:24;;;;;;;19.80;4.60;;;;;;;22.04;71.98;100664.23;107648;1254;108276;-68
2023/08/04 04:32:53;;;;;;;15.60;5.00;;;;;;;22.09;72.12;100669.52;107601;1254;97807;-70
2023/08/04 04:35:21;;;;;;;15.60;4.40;;;;;;;22.13;71.86;100670.48;107567;1253;97732;-74
2023/08/04 04:37:49;;;;;;;10.50;5.50;;;;;;;22.19;72.05;100670.08;107617;1254;111388;-69
2023/08/04 04:40:18;;;;;;;16.00;6.40;;;;;;;22.24;72.15;100668.04;107658;1251;110326;-67
2023/08/04 04:42:46;;;;;;;13.80;5.50;;;;;;;22.32;72.20;100665.53;107621;1251;108152;-68
2023/08/04 04:45:14;;;;;;;10.30;5.10;;;;;;;22.40;72.21;100671.51;107551;1252;97902;-68
2023/08/04 04:47:43;;;;;;;16.60;5.70;;;;;;;22.48;72.05;100677.77;107602;1251;98376;-67
2023/08/04 04:50:12;;;;;;;13.90;4.70;;;;;;;22.53;72.14;100678.25;107596;1251;110750;-70
2023/08/04 04:52:40;;;;;;;12.20;4.60;;;;;;;22.58;71.92;100682.40;107550;1251;110112;-67
2023/08/04 04:55:09;;;;;;;23.30;6.30;;;;;;;22.63;71.83;100684.69;107542;1251;108645;-69
2023/08/04 04:57:40;;;;;;;14.40;4.80;;;;;;;22.68;71.70;100690.40;107517;1254;97745;-68
2023/08/04 05:00:09;;;;;;;22.80;5.60;;;;;;;22.74;71.35;100694.95;107685;1251;98434;-66
2023/08/04 05:02:43;;;;;;;19.80;5.00;;;;;;;22.80;71.44;100695.14;107662;1254;111494;-68
2023/08/04 05:05:15;;;;;;;11.30;4.90;;;;;;;22.86;71.27;100697.83;107583;1251;109964;-68
2023/08/04 05:07:43;;;;;;;15.00;4.90;;;;;;;22.90;71.37;100700.75;107620;1251;107797;-69
2023/08/04 05:10:11;;;;;;;11.40;5.50;;;;;;;22.93;71.33;100702.75;107552;1251;97848;-66
2023/08/04 05:12:39;;;;;;;23.30;5.40;;;;;;;23.00;71.04;100701.50;107595;1255;97809;-65
2023/08/04 05:15:08;;;;;;;21.10;7.60;;;;;;;23.07;71.01;100699.97;107524;1254;111811;-68
2023/08/04 05:17:37;;;;;;;31.90;6.10;;;;;;;23.15;70.95;100697.68;107595;1251;109187;-67
2023/08/04 05:20:06;;;;;;;17.50;5.10;;;;;;;23.22;70.79;100696.18;107580;1252;107462;-66
2023/08/04 05:22:34;;;;;;;32.00;5.70;;;;;;;23.29;70.53;100692.16;107562;1251;97839;-68
2023/08/04 05:25:04;;;;;;;17.80;6.20;;;;;;;23.37;70.46;100691.30;107555;1254;97837;-67
2023/08/04 05:27:40;;;;;;;23.50;6.20;;;;;;;23.43;70.21;100692.89;107584;1256;112284;-68
2023/08/04 05:30:09;;;;;;;28.30;6.20;;;;;;;23.49;69.94;100688.19;107614;1251;109725;-67
2023/08/04 05:32:37;;;;;;;15.20;5.40;;;;;;;23.55;69.83;100691.02;107587;1251;108809;-67
2023/08/04 05:35:06;;;;;;;10.60;5.10;;;;;;;23.61;69.42;100693.63;107612;1252;97829;-67
2023/08/04 05:37:34;;;;;;;10.10;5.60;;;;;;;23.66;69.22;100695.73;107594;1255;97941;-67
2023/08/04 05:40:05;;;;;;;17.70;5.10;;;;;;;23.72;68.97;100700.87;107647;1251;112480;-68
2023/08/04 05:42:33;;;;;;;27.80;5.50;;;;;;;23.79;68.85;100701.33;107597;1255;109946;-68
2023/08/04 05:45:01;;;;;;;13.30;5.00;;;;;;;23.85;68.78;100701.30;107558;1251;108644;-67
2023/08/04 05:47:30;;;;;;;13.70;5.00;;;;;;;23.91;68.46;100694.91;107585;1251;97895;-69
2023/08/04 05:50:04;;;;;;;17.10;4.90;;;;;;;23.99;67.92;100695.29;107632;1251;98406;-70
2023/08/04 05:52:36;;;;;;;17.40;5.30;;;;;;;24.05;67.77;100695.48;107567;1251;111895;-68
2023/08/04 05:55:05;;;;;;;13.40;4.90;;;;;;;24.12;67.60;100693.91;107559;1251;109388;-67
2023/08/04 05:57:33;;;;;;;11.80;5.00;;;;;;;24.18;67.56;100700.05;107592;1251;108719;-70
2023/08/04 06:00:02;;;;;;;21.60;5.30;;;;;;;24.24;67.49;100702.33;107569;1255;97893;-69
2023/08/04 06:02:32;;;;;;;10.80;5.10;;;;;;;24.30;67.21;100703.81;107606;1251;97778;-66
2023/08/04 06:05:03;;;;;;;9.80;5.20;;;;;;;24.36;66.95;100705.69;107536;1251;110855;-67
2023/08/04 06:07:33;;;;;;;21.40;5.20;;;;;;;24.41;66.74;100704.50;107575;1254;109419;-67
2023/08/04 06:10:02;;;;;;;19.40;4.80;;;;;;;24.47;66.49;100709.20;107602;1251;108753;-70
2023/08/04 06:12:31;;;;;;;9.60;5.40;;;;;;;24.53;66.40;100713.55;107573;1251;97904;-69
2023/08/04 06:15:02;;;;;;;14.30;6.00;;;;;;;24.59;65.97;100714.05;107604;1255;98386;-67
2023/08/04 06:17:32;;;;;;;18.80;8.30;;;;;;;24.64;65.93;100711.65;107551;1254;111692;-69
2023/08/04 06:20:04;;;;;;;21.90;6.70;;;;;;;24.70;65.82;100713.67;107569;1251;109510;-67
2023/08/04 06:22:34;;;;;;;21.10;6.60;;;;;;;24.76;65.55;100715.47;107635;1257;107778;-68
2023/08/04 06:25:04;;;;;;;24.10;6.40;;;;;;;24.80;65.44;100715.98;107609;1254;97746;-68
2023/08/04 06:27:37;;;;;;;20.50;6.40;;;;;;;24.85;65.32;100720.21;107590;1254;97717;-69
2023/08/04 06:30:06;;;;;;;16.70;5.60;;;;;;;24.90;65.21;100718.78;107618;1255;111122;-67
2023/08/04 06:32:35;;;;;;;25.60;6.10;;;;;;;24.96;64.87;100720.48;107570;1254;110137;-67
2023/08/04 06:35:04;;;;;;;17.60;6.60;;;;;;;25.03;64.82;100716.45;107610;1255;108121;-65
2023/08/04 06:37:32;;;;;;;22.70;6.90;;;;;;;25.10;64.67;100718.04;107598;1251;97928;-67
2023/08/04 06:40:00;;;;;;;15.70;5.40;;;;;;;25.16;64.41;100719.05;107674;1257;98392;-69
2023/08/04 06:42:28;;;;;;;10.80;5.40;;;;;;;25.23;64.07;100716.17;107520;1254;111552;-67
2023/08/04 06:44:57;;;;;;;13.20;5.70;;;;;;;25.29;63.86;100716.18;107580;1256;109948;-66
2023/08/04 06:47:25;;;;;;;19.40;5.30;;;;;;;25.36;63.49;100714.89;107564;1251;108316;-68
2023/08/04 06:49:54;;;;;;;13.30;5.70;;;;;;;25.43;63.56;100717.29;107546;1256;97816;-70
2023/08/04 06:52:23;;;;;;;16.90;5.70;;;;;;;25.50;63.40;100712.44;107591;1251;97825;-68
2023/08/04 06:54:51;;;;;;;20.20;7.70;;;;;;;25.57;63.57;100708.05;107524;1254;111765;-68
2023/08/04 06:57:20;;;;;;;22.20;6.40;;;;;;;25.66;63.54;100710.19;107566;1251;109915;-67
2023/08/04 06:59:48;;;;;;;12.20;5.10;;;;;;;25.75;63.53;100708.96;107562;1255;106447;-67
2023/08/04 07:02:25;;;;;;;17.50;6.20;;;;;;;25.84;63.19;100711.05;107565;1254;97808;-67
2023/08/04 07:04:53;;;;;;;13.50;5.70;;;;;;;25.92;63.18;100708.95;107562;1251;98455;-68
2023/08/04 07:07:21;;;;;;;20.80;6.10;;;;;;;26.01;62.92;100710.55;107581;1252;111180;-69
2023/08/04 07:09:53;;;;;;;32.50;5.70;;;;;;;26.13;62.83;100711.73;107619;1255;110241;-68
2023/08/04 07:12:21;;;;;;;15.60;5.20;;;;;;;26.24;62.48;100710.70;107465;1257;108535;-67
2023/08/04 07:14:51;;;;;;;18.90;5.20;;;;;;;26.35;61.53;100712.70;107560;1251;97935;-67
2023/08/04 07:17:19;;;;;;;16.80;6.10;;;;;;;26.47;61.78;100715.91;107560;1256;97704;-68
2023/08/04 07:19:48;;;;;;;7.90;5.40;;;;;;;26.58;61.63;100718.19;107580;1256;111167;-67
2023/08/04 07:22:16;;;;;;;17.10;6.00;;;;;;;26.69;61.16;100722.77;107592;1251;109070;-68
2023/08/04 07:24:47;;;;;;;16.80;5.60;;;;;;;26.78;60.65;100723.70;107559;1255;108150;-68
2023/08/04 07:27:16;;;;;;;22.40;6.20;;;;;;;26.91;59.63;100720.41;107590;1251;97824;-66
2023/08/04 07:29:44;;;;;;;8.80;5.10;;;;;;;27.02;59.24;100720.34;107559;1255;97882;-68
2023/08/04 07:32:13;;;;;;;12.20;6.00;;;;;;;27.10;59.06;100721.98;107516;1254;111734;-68
2023/08/04 07:34:41;;;;;;;8.10;4.60;;;;;;;27.20;58.25;100724.64;107497;1257;109859;-67
2023/08/04 07:37:10;;;;;;;18.30;5.20;;;;;;;27.32;57.78;100729.20;107546;1251;107771;-70
2023/08/04 07:39:39;;;;;;;15.00;5.70;;;;;;;27.42;57.58;100726.30;107463;1257;97895;-71
2023/08/04 07:42:14;;;;;;;14.20;5.70;;;;;;;27.52;57.32;100727.98;107543;1256;97713;-68
2023/08/04 07:44:42;;;;;;;11.90;5.20;;;;;;;27.62;57.30;100730.91;107476;1254;112053;-68
2023/08/04 07:47:11;;;;;;;16.40;5.20;;;;;;;27.72;56.40;100729.52;107524;1257;109998;-67
2023/08/04 07:49:39;;;;;;;12.70;4.80;;;;;;;27.81;56.20;100727.66;107538;1257;107721;-67
2023/08/04 07:52:08;;;;;;;7.00;5.20;;;;;;;27.90;55.29;100725.98;107572;1255;97835;-68
2023/08/04 07:54:37;;;;;;;19.40;5.00;;;;;;;28.04;54.83;100723.19;107607;1251;97707;-66
2023/08/04 07:57:07;;;;;;;12.50;5.30;;;;;;;28.15;55.16;100718.67;107553;1251;111923;-67
2023/08/04 07:59:35;;;;;;;20.40;5.60;;;;;;;28.27;54.81;100723.20;107545;1255;109719;-66
2023/08/04 08:02:04;;;;;;;17.40;6.00;;;;;;;28.37;54.13;100724.34;107591;1251;108360;-66
2023/08/04 08:04:32;;;;;;;15.40;5.40;;;;;;;28.48;53.56;100722.14;107510;1251;98579;-66
2023/08/04 08:07:00;;;;;;;15.30;4.70;;;;;;;28.56;53.81;100720.14;107540;1256;98314;-66
2023/08/04 08:09:28;;;;;;;17.00;5.40;;;;;;;28.64;53.62;100722.51;107552;1253;111594;-66
2023/08/04 08:11:56;;;;;;;15.50;5.30;;;;;;;28.75;53.56;100723.50;107542;1251;109158;-72
2023/08/04 08:14:25;;;;;;;19.30;5.00;;;;;;;28.89;53.01;100720.05;107540;1254;107649;-68
2023/08/04 08:16:53;;;;;;;11.80;5.00;;;;;;;29.00;52.93;100721.98;107573;1251;97833;-67
2023/08/04 08:19:21;;;;;;;11.10;4.70;;;;;;;29.10;52.54;100727.23;107555;1251;98498;-69
2023/08/04 08:21:50;;;;;;;11.90;4.50;;;;;;;29.20;51.64;100721.85;107564;1251;112891;-66
2023/08/04 08:24:18;;;;;;;8.80;4.90;;;;;;;29.29;51.47;100720.45;107553;1257;108841;-71
2023/08/04 08:26:52;;;;;;;6.80;4.50;;;;;;;29.40;50.50;100723.33;107538;1255;108767;-66
2023/08/04 08:29:29;;;;;;;17.80;5.20;;;;;;;29.53;50.37;100723.27;107548;1251;97739;-70
2023/08/04 08:32:04;;;;;;;10.60;4.80;;;;;;;29.71;49.35;100724.70;107520;1254;98392;-67
2023/08/04 08:34:35;;;;;;;14.80;4.60;;;;;;;29.83;48.79;100723.01;107507;1251;111451;-68
2023/08/04 08:37:19;;;;;;;11.50;4.40;;;;;;;29.95;48.12;100718.55;107505;1254;108689;-70
2023/08/04 08:39:53;;;;;;;14.60;5.00;;;;;;;30.07;48.75;100720.45;107542;1251;107517;-68
2023/08/04 08:42:22;;;;;;;10.00;5.00;;;;;;;30.20;48.87;100721.02;107527;1251;97983;-70
2023/08/04 08:44:50;;;;;;;11.40;5.20;;;;;;;30.31;48.81;100718.80;107575;1256;97918;-69
2023/08/04 08:47:20;;;;;;;14.70;5.00;;;;;;;30.41;48.64;100713.91;107506;1252;111037;-70
2023/08/04 08:49:54;;;;;;;9.70;3.70;;;;;;;30.57;48.48;100711.21;107555;1254;109797;-70
2023/08/04 08:52:28;;;;;;;14.00;4.70;;;;;;;30.75;48.24;100711.23;107472;1251;107521;-70
2023/08/04 08:54:58;;;;;;;14.30;4.70;;;;;;;30.92;47.98;100709.54;107518;1251;97810;-69
2023/08/04 08:57:27;;;;;;;11.10;4.30;;;;;;;31.07;47.62;100710.02;107545;1251;98341;-69
2023/08/04 09:00:01;;;;;;;11.30;4.90;;;;;;;31.21;47.87;100707.73;107668;1251;112278;-73
2023/08/04 09:02:29;;;;;;;9.80;4.60;;;;;;;31.37;47.59;100709.06;107526;1254;108676;-69
2023/08/04 09:04:59;;;;;;;10.00;4.40;;;;;;;31.52;46.66;100705.43;107569;1250;108788;-70
2023/08/04 09:07:28;;;;;;;13.90;4.70;;;;;;;31.67;46.06;100705.73;107525;1251;97812;-71
2023/08/04 09:09:56;;;;;;;7.50;4.70;;;;;;;31.80;45.12;100701.43;107516;1251;97800;-69
2023/08/04 09:12:26;;;;;;;10.10;4.30;;;;;;;31.92;44.94;100705.08;107527;1251;111787;-73
2023/08/04 09:14:56;;;;;;;8.10;4.20;;;;;;;32.09;45.21;100701.08;107643;1255;108417;-73
2023/08/04 09:17:38;;;;;;;6.20;4.40;;;;;;;32.29;44.83;100705.32;107572;1251;107522;-70
2023/08/04 09:20:25;;;;;;;17.90;5.50;;;;;;;32.52;43.93;100701.38;107578;1254;97812;-70
2023/08/04 09:22:54;;;;;;;8.80;4.00;;;;;;;32.76;43.02;100694.08;107583;1250;97742;-71
2023/08/04 09:25:23;;;;;;;10.70;4.30;;;;;;;33.00;43.13;100693.05;107525;1250;112056;-71
2023/08/04 09:27:52;;;;;;;6.20;3.90;;;;;;;33.25;42.43;100692.08;107533;1251;109757;-69
2023/08/04 09:30:20;;;;;;;13.40;3.70;;;;;;;33.60;41.71;100690.34;107607;1251;108585;-71
2023/08/04 09:32:52;;;;;;;7.50;4.40;;;;;;;34.05;41.11;100693.63;107523;1251;97807;-67
2023/08/04 09:35:21;;;;;;;8.70;4.50;;;;;;;34.57;40.66;100687.88;107529;1251;97832;-66
2023/08/04 09:37:54;;;;;;;10.70;4.30;;;;;;;35.03;39.10;100682.73;107572;1254;111160;-70
2023/08/04 09:40:22;;;;;;;11.60;4.50;;;;;;;35.50;38.14;100682.37;107658;1251;110322;-72
2023/08/04 09:42:58;;;;;;;13.00;3.70;;;;;;;35.91;36.54;100680.55;107562;1251;108032;-67
2023/08/04 09:45:26;;;;;;;10.50;3.90;;;;;;;36.32;36.98;100684.79;107198;1254;573132;-68
2023/08/04 09:47:55;;;;;;;17.40;4.90;;;;;;;36.75;36.71;100683.97;107553;1254;97812;-69
2023/08/04 09:50:23;;;;;;;16.20;3.80;;;;;;;37.10;34.87;100675.64;107527;1251;111920;-68
2023/08/04 09:53:03;;;;;;;8.50;3.90;;;;;;;37.36;35.07;100674.31;107642;1251;109408;-67
2023/08/04 09:55:31;;;;;;;10.30;3.60;;;;;;;37.78;34.32;100670.58;107581;1251;108772;-70
2023/08/04 09:58:01;;;;;;;14.60;3.50;;;;;;;38.00;33.05;100667.23;107607;1251;97838;-71
2023/08/04 10:00:29;;;;;;;11.60;3.70;;;;;;;38.17;33.52;100666.63;107573;1257;97840;-67
2023/08/04 10:02:58;;;;;;;8.80;4.20;;;;;;;38.51;32.94;100663.02;107584;1251;110832;-70
2023/08/04 10:05:28;;;;;;;6.60;3.30;;;;;;;38.83;32.03;100660.73;107631;1254;110257;-70
2023/08/04 10:07:57;;;;;;;6.10;3.90;;;;;;;39.18;32.00;100659.66;107571;1255;108191;-68
2023/08/04 10:10:26;;;;;;;4.70;3.70;;;;;;;39.52;31.18;100656.57;107617;1251;98492;-70
2023/08/04 10:12:56;;;;;;;7.60;3.40;;;;;;;39.77;30.71;100657.16;107575;1251;98449;-68
2023/08/04 10:15:25;;;;;;;6.80;3.40;;;;;;;40.15;30.74;100661.02;107672;1251;112200;-70
2023/08/04 10:17:57;;;;;;;13.90;3.60;;;;;;;40.48;29.22;100661.31;107602;1250;108392;-69
2023/08/04 10:20:27;;;;;;;8.10;3.50;;;;;;;40.76;30.20;100655.55;107525;1251;108612;-68
2023/08/04 10:22:55;;;;;;;8.10;3.70;;;;;;;41.24;29.48;100654.57;107527;1251;97985;-72
2023/08/04 10:25:24;;;;;;;14.20;4.80;;;;;;;41.66;28.69;100650.20;107544;1251;97750;-70
2023/08/04 10:27:52;;;;;;;10.00;3.80;;;;;;;42.08;27.56;100650.55;107502;1254;111322;-69
2023/08/04 10:30:21;;;;;;;9.90;4.20;;;;;;;42.29;27.24;100647.11;107614;1251;109042;-69
2023/08/04 10:33:12;;;;;;;14.10;3.90;;;;;;;42.56;26.88;100649.48;107587;1254;107931;-71
2023/08/04 10:36:07;;;;;;;9.90;4.60;;;;;;;42.89;26.15;100646.33;107522;1251;97837;-70
2023/08/04 10:38:53;;;;;;;6.50;3.30;;;;;;;43.20;25.96;100642.90;107517;1251;97723;-70
2023/08/04 10:41:25;;;;;;;8.10;3.50;;;;;;;43.62;25.45;100640.48;107513;1254;112877;-70
2023/08/04 10:44:00;;;;;;;7.20;2.90;;;;;;;43.75;24.80;100636.34;107572;1254;109929;-70
2023/08/04 10:46:32;;;;;;;7.80;3.40;;;;;;;44.03;25.04;100636.95;107600;1251;108798;-68
2023/08/04 10:49:02;;;;;;;9.60;3.70;;;;;;;44.31;24.97;100639.11;107602;1251;97924;-71
2023/08/04 10:51:31;;;;;;;9.40;3.80;;;;;;;44.45;24.91;100636.27;107653;1251;97840;-70
2023/08/04 10:54:00;;;;;;;15.60;3.40;;;;;;;44.36;24.87;100631.05;107520;1251;111517;-71
2023/08/04 10:56:28;;;;;;;10.30;3.30;;;;;;;43.94;24.68;100625.77;107450;1251;109684;-70
2023/08/04 10:58:57;;;;;;;10.50;3.00;;;;;;;44.14;24.94;100625.13;107641;1251;107802;-72
2023/08/04 11:01:28;;;;;;;5.10;2.70;;;;;;;44.48;24.83;100628.48;107583;1254;97935;-70
2023/08/04 11:03:58;;;;;;;;;;;;;;;44.85;24.19;100631.27;107551;1254;97733;-69
2023/08/04 11:06:26;;;;;;;6.80;3.20;;;;;;;45.18;23.24;100631.03;107498;1254;111425;-72
2023/08/04 11:08:55;;;;;;;7.40;3.30;;;;;;;45.63;23.07;100631.50;107461;1251;109544;-67
2023/08/04 11:11:25;;;;;;;7.90;2.80;;;;;;;46.00;21.63;100627.40;107545;1254;107690;-71
2023/08/04 11:13:57;;;;;;;8.20;2.90;;;;;;;46.07;21.05;100622.54;107632;1257;98014;-71
2023/08/04 11:16:26;;;;;;;10.10;2.90;;;;;;;45.99;20.59;100617.86;107751;1251;97688;-70
2023/08/04 11:18:54;;;;;;;5.30;2.90;;;;;;;45.98;20.93;100617.45;107637;1251;112417;-68